Time;durP1;ratioP1;P1;durP2;ratioP2;P2;SDS_P1;SDS_P2;PMS_P1;PMS_P2;Temp;Humidity;BMP_temperature;BMP_pressure;BME280_temperature;BME280_humidity;BME280_pressure;Samples;Min_cycle;Max_cycle;Signal;HPM_P1;HPM_P2
2021/12/16 00:03:31;;;;;;;;;;;9.30;99.90;;;;;;5073049;28;19931;-58
2021/12/16 00:06:44;;;;;;;;;;;9.30;99.90;;;;;;5072621;28;19909;-58
2021/12/16 00:08:58;;;;;;;;;;;9.30;99.90;;;;;;5072362;28;20481;-55
2021/12/16 00:33:16;;;;;;;;;;;9.20;99.90;;;;;;5070278;28;19913;-59
2021/12/16 00:35:44;;;;;;;;;;;9.30;99.90;;;;;;5054168;28;19908;-58
2021/12/16 00:38:10;;;;;;;;;;;9.20;99.90;;;;;;5054137;28;19962;-59
2021/12/16 00:40:41;;;;;;;;;;;9.20;99.90;;;;;;5053874;28;20169;-59
2021/12/16 00:43:15;;;;;;;;;;;9.30;99.90;;;;;;5052624;28;19919;-59
2021/12/16 00:45:55;;;;;;;;;;;9.20;99.90;;;;;;5053354;28;19909;-58
2021/12/16 00:48:24;;;;;;;;;;;9.20;99.90;;;;;;5071912;28;19916;-59
2021/12/16 00:56:07;;;;;;;;;;;9.20;99.90;;;;;;5070582;28;19974;-59
2021/12/16 00:58:39;;;;;;;;;;;9.20;99.90;;;;;;5070289;28;20304;-59
2021/12/16 01:03:47;;;;;;;;;;;9.20;99.90;;;;;;5069989;28;20187;-59
2021/12/16 01:09:03;;;;;;;;;;;9.20;99.90;;;;;;5069718;28;19912;-57
2021/12/16 01:33:36;;;;;;;;;;;9.20;99.90;;;;;;5069029;28;20348;-59
2021/12/16 01:36:22;;;;;;;;;;;9.20;99.90;;;;;;5074482;28;19909;-59
2021/12/16 01:55:07;;;;;;;;;;;9.20;99.90;;;;;;5078323;28;19923;-58
2021/12/16 01:57:45;;;;;;;;;;;9.20;99.90;;;;;;5076732;28;19908;-59
2021/12/16 02:00:53;;;;;;;;;;;9.20;99.90;;;;;;5076903;28;20463;-58
2021/12/16 02:03:42;;;;;;;;;;;9.20;99.90;;;;;;5079036;28;19959;-58
2021/12/16 02:08:46;;;;;;;;;;;9.20;99.90;;;;;;5078543;28;19912;-57
2021/12/16 02:32:51;;;;;;;;;;;9.20;99.90;;;;;;5077009;28;20383;-59
2021/12/16 02:37:53;;;;;;;;;;;9.20;99.90;;;;;;5078773;28;19923;-59
2021/12/16 02:40:20;;;;;;;;;;;9.20;99.90;;;;;;5061308;28;20336;-59
2021/12/16 02:43:00;;;;;;;;;;;9.20;99.90;;;;;;5060260;28;19930;-59
2021/12/16 02:48:30;;;;;;;;;;;9.20;99.90;;;;;;5077780;28;19922;-59
2021/12/16 02:50:57;;;;;;;;;;;9.20;99.90;;;;;;5060311;28;19974;-57
2021/12/16 02:53:22;;;;;;;;;;;9.20;99.90;;;;;;5059677;28;19909;-59
2021/12/16 02:55:49;;;;;;;;;;;9.20;99.90;;;;;;5059610;28;20150;-59
2021/12/16 02:58:15;;;;;;;;;;;9.20;99.90;;;;;;5090880;28;19912;-59
2021/12/16 03:00:47;;;;;;;;;;;9.10;99.90;;;;;;5060031;28;19970;-57
2021/12/16 03:03:12;;;;;;;;;;;9.10;99.90;;;;;;5077829;28;19960;-57
2021/12/16 03:05:39;;;;;;;;;;;9.10;99.90;;;;;;5060914;28;19919;-59
2021/12/16 03:08:06;;;;;;;;;;;9.20;99.90;;;;;;5060579;28;19912;-59
2021/12/16 03:13:31;;;;;;;;;;;9.10;99.90;;;;;;5077745;28;19916;-59
2021/12/16 03:18:42;;;;;;;;;;;9.10;99.90;;;;;;5075968;28;19912;-58
2021/12/16 03:21:18;;;;;;;;;;;9.10;99.90;;;;;;5089989;28;19912;-59
2021/12/16 03:37:15;;;;;;;;;;;9.00;99.90;;;;;;5076609;28;19962;-58
2021/12/16 03:39:46;;;;;;;;;;;9.00;99.90;;;;;;5076561;28;19909;-55
2021/12/16 03:42:16;;;;;;;;;;;9.00;99.90;;;;;;5075920;28;19948;-57
2021/12/16 03:44:58;;;;;;;;;;;9.00;99.90;;;;;;5057888;28;20356;-59
2021/12/16 03:47:52;;;;;;;;;;;9.00;99.90;;;;;;5044551;28;19983;-57
2021/12/16 03:50:19;;;;;;;;;;;9.00;99.90;;;;;;5035423;28;19910;-57
2021/12/16 03:52:49;;;;;;;;;;;9.00;99.90;;;;;;5068725;28;19909;-57
2021/12/16 03:55:16;;;;;;;;;;;9.00;99.90;;;;;;5068181;28;19919;-55
2021/12/16 03:57:43;;;;;;;;;;;9.00;99.90;;;;;;5067759;28;19909;-59
2021/12/16 04:00:13;;;;;;;;;;;9.00;99.90;;;;;;5035283;28;19975;-59
2021/12/16 04:02:38;;;;;;;;;;;9.00;99.90;;;;;;5066429;28;19920;-59
2021/12/16 04:05:06;;;;;;;;;;;9.00;99.90;;;;;;5035507;28;19913;-58
2021/12/16 04:07:33;;;;;;;;;;;9.00;99.90;;;;;;5035606;28;19913;-55
2021/12/16 04:10:01;;;;;;;;;;;9.00;99.90;;;;;;5050856;28;19971;-59
2021/12/16 04:12:28;;;;;;;;;;;9.00;99.90;;;;;;5067434;28;19909;-58
2021/12/16 04:14:57;;;;;;;;;;;9.00;99.90;;;;;;5067992;28;20038;-59
2021/12/16 04:17:25;;;;;;;;;;;9.00;99.90;;;;;;5050476;28;19913;-57
2021/12/16 04:19:52;;;;;;;;;;;9.00;99.90;;;;;;5067079;28;19997;-58
2021/12/16 04:22:26;;;;;;;;;;;9.00;99.90;;;;;;5067476;28;20301;-56
2021/12/16 04:24:54;;;;;;;;;;;9.00;99.90;;;;;;5067798;28;19932;-56
2021/12/16 04:27:20;;;;;;;;;;;9.00;99.90;;;;;;5015484;28;20434;-59
2021/12/16 04:29:49;;;;;;;;;;;9.00;99.90;;;;;;5048738;28;19918;-59
2021/12/16 04:32:17;;;;;;;;;;;9.00;99.90;;;;;;5047817;28;19929;-59
2021/12/16 04:34:43;;;;;;;;;;;9.00;99.90;;;;;;5015590;28;19918;-58
2021/12/16 04:37:08;;;;;;;;;;;9.00;99.90;;;;;;5013807;28;19959;-58
2021/12/16 04:39:35;;;;;;;;;;;9.00;99.90;;;;;;5011882;28;20037;-58
2021/12/16 04:42:01;;;;;;;;;;;9.00;99.90;;;;;;5012027;28;20006;-56
2021/12/16 04:44:27;;;;;;;;;;;9.00;99.90;;;;;;5013144;28;19925;-58
2021/12/16 04:46:54;;;;;;;;;;;9.00;99.90;;;;;;5045064;28;19925;-58
2021/12/16 04:49:20;;;;;;;;;;;9.00;99.90;;;;;;5011547;28;19909;-57
2021/12/16 04:51:47;;;;;;;;;;;9.00;99.90;;;;;;5010449;28;19921;-57
2021/12/16 04:54:13;;;;;;;;;;;8.90;99.90;;;;;;5042284;28;19909;-58
2021/12/16 04:56:39;;;;;;;;;;;8.90;99.90;;;;;;5010457;28;20326;-60
2021/12/16 04:59:08;;;;;;;;;;;8.90;99.90;;;;;;5042977;28;20041;-59
2021/12/16 05:01:34;;;;;;;;;;;8.90;99.90;;;;;;5010689;28;19910;-59
2021/12/16 05:04:00;;;;;;;;;;;8.90;99.90;;;;;;5009856;28;19972;-59
2021/12/16 05:06:26;;;;;;;;;;;9.00;99.90;;;;;;5009372;28;19948;-58
2021/12/16 05:08:51;;;;;;;;;;;9.00;99.90;;;;;;5009681;28;20328;-57
2021/12/16 05:11:17;;;;;;;;;;;9.00;99.90;;;;;;5008418;28;20201;-57
2021/12/16 05:13:43;;;;;;;;;;;9.00;99.90;;;;;;5008944;28;19917;-58
2021/12/16 05:16:08;;;;;;;;;;;9.00;99.90;;;;;;5007790;28;20320;-58
2021/12/16 05:18:36;;;;;;;;;;;9.00;99.90;;;;;;5007677;28;19964;-54
2021/12/16 05:21:08;;;;;;;;;;;9.00;99.90;;;;;;5008649;28;20025;-57
2021/12/16 05:26:21;;;;;;;;;;;9.00;99.90;;;;;;5016946;28;20007;-58
2021/12/16 05:28:48;;;;;;;;;;;9.00;99.90;;;;;;5015118;28;19909;-58
2021/12/16 05:31:15;;;;;;;;;;;9.00;99.90;;;;;;5016064;28;20247;-58
2021/12/16 05:33:40;;;;;;;;;;;9.00;99.90;;;;;;5016884;28;19996;-57
2021/12/16 05:36:06;;;;;;;;;;;9.00;99.90;;;;;;5048699;28;20290;-58
2021/12/16 05:38:31;;;;;;;;;;;9.00;99.90;;;;;;5012269;28;19918;-58
2021/12/16 05:40:57;;;;;;;;;;;9.00;99.90;;;;;;5011637;28;19918;-57
2021/12/16 05:43:24;;;;;;;;;;;9.10;99.90;;;;;;5012056;28;20384;-57
2021/12/16 05:45:50;;;;;;;;;;;9.00;99.90;;;;;;5011642;28;20376;-58
2021/12/16 05:48:17;;;;;;;;;;;9.00;99.90;;;;;;5032805;28;20004;-58
2021/12/16 05:50:45;;;;;;;;;;;9.00;99.90;;;;;;5034582;28;20308;-58
2021/12/16 05:53:10;;;;;;;;;;;9.00;99.90;;;;;;5035199;28;20389;-58
2021/12/16 05:55:37;;;;;;;;;;;9.00;99.90;;;;;;5035218;28;19917;-58
2021/12/16 05:58:05;;;;;;;;;;;9.00;99.90;;;;;;5067709;28;19967;-58
2021/12/16 06:00:32;;;;;;;;;;;9.00;99.90;;;;;;5051027;28;19909;-58
2021/12/16 06:02:58;;;;;;;;;;;9.00;99.90;;;;;;5036541;28;19928;-58
2021/12/16 06:05:23;;;;;;;;;;;9.00;99.90;;;;;;5036226;28;19908;-56
2021/12/16 06:07:50;;;;;;;;;;;9.00;99.90;;;;;;5050311;28;19916;-58
2021/12/16 06:13:07;;;;;;;;;;;9.00;99.90;;;;;;5016909;28;19909;-58
2021/12/16 06:28:56;;;;;;;;;;;9.00;99.90;;;;;;5045038;28;20007;-57
2021/12/16 06:31:21;;;;;;;;;;;9.00;99.90;;;;;;5027786;28;20086;-58
2021/12/16 06:33:47;;;;;;;;;;;9.00;99.90;;;;;;5028687;28;19958;-59
2021/12/16 06:36:13;;;;;;;;;;;9.00;99.90;;;;;;5029292;28;19909;-59
2021/12/16 06:38:38;;;;;;;;;;;9.00;99.90;;;;;;5030689;28;20081;-57
2021/12/16 06:41:04;;;;;;;;;;;9.00;99.90;;;;;;5032571;28;19952;-57
2021/12/16 06:43:31;;;;;;;;;;;9.00;99.90;;;;;;5032716;28;20185;-56
2021/12/16 06:45:58;;;;;;;;;;;9.10;99.90;;;;;;5033067;28;19909;-58
2021/12/16 06:48:29;;;;;;;;;;;9.10;99.90;;;;;;5050356;28;20231;-57
2021/12/16 06:50:59;;;;;;;;;;;9.10;99.90;;;;;;5034280;28;20149;-55
2021/12/16 06:53:33;;;;;;;;;;;9.10;99.90;;;;;;5034376;28;19909;-57
2021/12/16 06:56:08;;;;;;;;;;;9.10;99.90;;;;;;5034531;28;19924;-58
2021/12/16 06:58:46;;;;;;;;;;;9.10;99.90;;;;;;5035616;28;19931;-58
2021/12/16 07:01:20;;;;;;;;;;;9.10;99.90;;;;;;5035515;28;20133;-57
2021/12/16 07:03:49;;;;;;;;;;;9.10;99.90;;;;;;5033856;28;19921;-56
2021/12/16 07:06:29;;;;;;;;;;;9.10;99.90;;;;;;5034566;28;20323;-58
2021/12/16 07:08:56;;;;;;;;;;;9.10;99.90;;;;;;5031268;28;20102;-58
2021/12/16 07:11:22;;;;;;;;;;;9.10;99.90;;;;;;5028320;28;20140;-57
2021/12/16 07:13:57;;;;;;;;;;;9.10;99.90;;;;;;5026119;28;20146;-58
2021/12/16 07:16:23;;;;;;;;;;;9.10;99.90;;;;;;5027172;28;19909;-57
2021/12/16 07:18:49;;;;;;;;;;;9.20;99.90;;;;;;5026778;28;19932;-58
2021/12/16 07:21:14;;;;;;;;;;;9.20;99.90;;;;;;5026000;28;20420;-59
2021/12/16 07:23:40;;;;;;;;;;;9.20;99.90;;;;;;5028432;28;19922;-58
2021/12/16 07:26:05;;;;;;;;;;;9.20;99.90;;;;;;5046288;28;19970;-57
2021/12/16 07:28:31;;;;;;;;;;;9.20;99.90;;;;;;5029009;28;20444;-58
2021/12/16 07:30:57;;;;;;;;;;;9.20;99.90;;;;;;5028754;28;19913;-56
2021/12/16 07:33:22;;;;;;;;;;;9.20;99.90;;;;;;5030149;28;19909;-57
2021/12/16 07:35:51;;;;;;;;;;;9.20;99.90;;;;;;5028246;28;20397;-59
2021/12/16 07:38:17;;;;;;;;;;;9.20;99.90;;;;;;5027011;28;20103;-59
2021/12/16 07:40:44;;;;;;;;;;;9.20;99.90;;;;;;5026874;28;19916;-58
2021/12/16 07:45:37;;;;;;;;;;;9.30;99.90;;;;;;5040336;28;19912;-56
2021/12/16 07:48:03;;;;;;;;;;;9.20;99.90;;;;;;5003887;28;19980;-58
2021/12/16 07:50:28;;;;;;;;;;;9.20;99.90;;;;;;5003706;28;19917;-58
2021/12/16 07:52:54;;;;;;;;;;;9.20;99.90;;;;;;5002357;28;20157;-55
2021/12/16 07:55:20;;;;;;;;;;;9.20;99.90;;;;;;5004398;28;20187;-58
2021/12/16 07:57:45;;;;;;;;;;;9.20;99.90;;;;;;5007029;28;20345;-57
2021/12/16 08:00:22;;;;;;;;;;;9.20;99.90;;;;;;5008357;28;20080;-58
2021/12/16 08:02:48;;;;;;;;;;;9.30;99.90;;;;;;5007283;28;20161;-57
2021/12/16 08:05:15;;;;;;;;;;;9.30;99.90;;;;;;5007759;28;19944;-56
2021/12/16 08:07:40;;;;;;;;;;;9.30;99.90;;;;;;5007964;28;20287;-58
2021/12/16 08:10:08;;;;;;;;;;;9.30;99.90;;;;;;5007070;28;19964;-58
2021/12/16 08:12:33;;;;;;;;;;;9.30;99.90;;;;;;5006285;28;19917;-57
2021/12/16 08:14:59;;;;;;;;;;;9.30;99.90;;;;;;5006818;28;20341;-56
2021/12/16 08:17:24;;;;;;;;;;;9.30;99.90;;;;;;5006961;28;20128;-57
2021/12/16 08:19:50;;;;;;;;;;;9.30;99.90;;;;;;5036930;28;20074;-56
2021/12/16 08:22:15;;;;;;;;;;;9.30;99.90;;;;;;5005128;28;19909;-58
2021/12/16 08:24:41;;;;;;;;;;;9.30;99.90;;;;;;5003229;28;19921;-58
2021/12/16 08:27:07;;;;;;;;;;;9.30;99.90;;;;;;5006324;28;19917;-56
2021/12/16 08:29:33;;;;;;;;;;;9.30;99.90;;;;;;5005219;28;20368;-58
2021/12/16 08:31:58;;;;;;;;;;;9.20;99.90;;;;;;5004655;28;19952;-58
2021/12/16 08:34:25;;;;;;;;;;;9.30;99.90;;;;;;5038522;28;19925;-58
2021/12/16 08:36:50;;;;;;;;;;;9.30;99.90;;;;;;5003582;28;19909;-56
2021/12/16 08:39:16;;;;;;;;;;;9.30;99.90;;;;;;5002860;28;19975;-57
2021/12/16 08:41:44;;;;;;;;;;;9.30;99.90;;;;;;5004500;28;20251;-57
2021/12/16 08:44:09;;;;;;;;;;;9.30;99.90;;;;;;5005343;28;20022;-57
2021/12/16 08:46:37;;;;;;;;;;;9.40;99.90;;;;;;5014136;28;20335;-55
2021/12/16 08:49:02;;;;;;;;;;;9.40;99.90;;;;;;5025422;28;20036;-57
2021/12/16 08:51:32;;;;;;;;;;;9.40;99.90;;;;;;5025510;28;20043;-57
2021/12/16 08:53:58;;;;;;;;;;;9.40;99.90;;;;;;5024093;28;20112;-56
2021/12/16 08:56:26;;;;;;;;;;;9.40;99.90;;;;;;5025391;28;20174;-57
2021/12/16 08:58:52;;;;;;;;;;;9.40;99.90;;;;;;5044880;28;20004;-57
2021/12/16 09:01:23;;;;;;;;;;;9.40;99.90;;;;;;5028547;28;20310;-57
2021/12/16 09:03:49;;;;;;;;;;;9.40;99.90;;;;;;5048495;28;19917;-57
2021/12/16 09:06:15;;;;;;;;;;;9.40;99.90;;;;;;5048904;28;19909;-57
2021/12/16 09:08:40;;;;;;;;;;;9.40;99.90;;;;;;5028122;28;20187;-56
2021/12/16 09:11:08;;;;;;;;;;;9.40;99.90;;;;;;5043983;28;20056;-56
2021/12/16 09:13:34;;;;;;;;;;;9.40;99.90;;;;;;5047325;28;20073;-56
2021/12/16 09:16:01;;;;;;;;;;;9.40;99.90;;;;;;5031972;28;20008;-57
2021/12/16 09:18:29;;;;;;;;;;;9.40;99.90;;;;;;5033234;28;20281;-58
2021/12/16 09:20:55;;;;;;;;;;;9.40;99.90;;;;;;5032830;28;20027;-57
2021/12/16 09:23:20;;;;;;;;;;;9.50;99.90;;;;;;5033837;28;20019;-57
2021/12/16 09:25:46;;;;;;;;;;;9.50;99.90;;;;;;5033953;28;20003;-58
2021/12/16 09:28:12;;;;;;;;;;;9.50;99.90;;;;;;5035458;28;19919;-57
2021/12/16 09:30:39;;;;;;;;;;;9.50;99.90;;;;;;5036417;28;19916;-58
2021/12/16 09:33:07;;;;;;;;;;;9.60;99.90;;;;;;5053661;28;19908;-57
2021/12/16 09:35:34;;;;;;;;;;;9.60;99.90;;;;;;5052802;28;20073;-58
2021/12/16 09:38:01;;;;;;;;;;;9.60;99.90;;;;;;5051441;28;19917;-57
2021/12/16 09:40:28;;;;;;;;;;;9.60;99.90;;;;;;5082111;28;19998;-55
2021/12/16 09:42:54;;;;;;;;;;;9.60;99.90;;;;;;5045568;28;19916;-55
2021/12/16 09:45:21;;;;;;;;;;;9.60;99.90;;;;;;5047682;28;19909;-58
2021/12/16 09:47:47;;;;;;;;;;;9.60;99.90;;;;;;5029417;28;20386;-57
2021/12/16 09:50:19;;;;;;;;;;;9.70;99.90;;;;;;5056011;28;19913;-61
2021/12/16 09:52:45;;;;;;;;;;;9.70;99.90;;;;;;5056751;28;20142;-61
2021/12/16 09:55:11;;;;;;;;;;;9.70;99.90;;;;;;5024820;28;19949;-56
2021/12/16 09:57:38;;;;;;;;;;;9.70;99.90;;;;;;5030021;28;20159;-58
2021/12/16 10:00:06;;;;;;;;;;;9.70;99.90;;;;;;5065898;28;20016;-57
2021/12/16 10:02:34;;;;;;;;;;;9.80;99.90;;;;;;5031877;28;19909;-56
2021/12/16 10:05:03;;;;;;;;;;;9.80;99.90;;;;;;5063189;28;20289;-58
2021/12/16 10:07:33;;;;;;;;;;;9.80;99.90;;;;;;5032084;28;20182;-56
2021/12/16 10:10:00;;;;;;;;;;;9.80;99.90;;;;;;5032717;28;19913;-55
2021/12/16 10:12:31;;;;;;;;;;;9.80;99.90;;;;;;5054547;28;20173;-56
2021/12/16 10:17:30;;;;;;;;;;;9.80;99.90;;;;;;5021627;28;20352;-57
2021/12/16 10:20:01;;;;;;;;;;;9.70;99.90;;;;;;5054168;28;19909;-56
2021/12/16 10:22:39;;;;;;;;;;;9.70;99.90;;;;;;5029095;28;20004;-57
2021/12/16 10:25:22;;;;;;;;;;;9.70;99.90;;;;;;5029117;28;19913;-59
2021/12/16 10:27:51;;;;;;;;;;;9.70;99.90;;;;;;5053583;28;20336;-59
2021/12/16 10:30:17;;;;;;;;;;;9.80;99.90;;;;;;5053432;28;20281;-58
2021/12/16 10:32:44;;;;;;;;;;;9.80;99.90;;;;;;5054061;28;20018;-59
2021/12/16 10:35:33;;;;;;;;;;;9.80;99.90;;;;;;5054748;28;19920;-58
2021/12/16 10:38:00;;;;;;;;;;;9.80;99.90;;;;;;5021378;28;19916;-58
2021/12/16 10:40:25;;;;;;;;;;;9.80;99.90;;;;;;5019042;28;20284;-58
2021/12/16 10:42:51;;;;;;;;;;;9.80;99.90;;;;;;5019206;28;20312;-57
2021/12/16 10:45:31;;;;;;;;;;;9.80;99.90;;;;;;5056998;28;19909;-59
2021/12/16 10:48:10;;;;;;;;;;;9.80;99.90;;;;;;5060686;28;19927;-55
2021/12/16 10:50:54;;;;;;;;;;;9.80;99.90;;;;;;5073790;28;19909;-53
2021/12/16 10:53:38;;;;;;;;;;;9.90;99.90;;;;;;5055961;28;19916;-57
2021/12/16 10:56:04;;;;;;;;;;;9.90;99.90;;;;;;5056779;28;19908;-55
2021/12/16 10:58:46;;;;;;;;;;;10.00;99.90;;;;;;5056409;28;19938;-56
2021/12/16 11:01:32;;;;;;;;;;;10.00;99.90;;;;;;5075066;28;19917;-57
2021/12/16 11:03:58;;;;;;;;;;;10.10;99.90;;;;;;5087649;28;19986;-54
2021/12/16 11:06:31;;;;;;;;;;;10.10;99.90;;;;;;5067763;28;20039;-56
2021/12/16 11:09:16;;;;;;;;;;;10.10;99.90;;;;;;5051769;28;19908;-56
2021/12/16 11:11:42;;;;;;;;;;;10.00;99.90;;;;;;5050791;28;19923;-56
2021/12/16 11:14:07;;;;;;;;;;;10.10;99.90;;;;;;5049023;28;19909;-57
2021/12/16 11:16:34;;;;;;;;;;;10.10;99.90;;;;;;5065660;28;19917;-54
2021/12/16 11:18:59;;;;;;;;;;;10.10;99.90;;;;;;5050314;28;19909;-57
2021/12/16 11:21:31;;;;;;;;;;;10.10;99.90;;;;;;5050241;28;20185;-56
2021/12/16 11:23:57;;;;;;;;;;;10.10;99.90;;;;;;5049989;28;19935;-56
2021/12/16 11:26:28;;;;;;;;;;;10.10;99.90;;;;;;5044446;28;19908;-52
2021/12/16 11:28:54;;;;;;;;;;;10.00;99.90;;;;;;5063478;28;19909;-56
2021/12/16 11:31:22;;;;;;;;;;;10.10;99.90;;;;;;5047381;28;20014;-56
2021/12/16 11:33:53;;;;;;;;;;;10.10;99.90;;;;;;5044923;28;19948;-56
2021/12/16 11:36:27;;;;;;;;;;;10.00;99.90;;;;;;5049771;28;19974;-56
2021/12/16 11:39:11;;;;;;;;;;;10.00;99.90;;;;;;5050233;28;19916;-55
2021/12/16 11:41:38;;;;;;;;;;;10.00;99.90;;;;;;5044758;28;19919;-54
2021/12/16 11:44:13;;;;;;;;;;;10.00;99.90;;;;;;5050765;28;20185;-57
2021/12/16 11:46:57;;;;;;;;;;;10.10;99.90;;;;;;5067287;28;20289;-55
2021/12/16 11:49:34;;;;;;;;;;;10.10;99.90;;;;;;5082699;28;19919;-57
2021/12/16 11:52:06;;;;;;;;;;;10.20;99.90;;;;;;5067937;28;20420;-57
2021/12/16 11:54:39;;;;;;;;;;;10.10;99.90;;;;;;5068418;28;20538;-57
2021/12/16 11:57:25;;;;;;;;;;;10.20;99.90;;;;;;5068959;28;19959;-57
2021/12/16 11:59:52;;;;;;;;;;;10.20;99.90;;;;;;5049866;28;19908;-58
2021/12/16 12:02:34;;;;;;;;;;;10.30;99.90;;;;;;5068558;28;19916;-53
2021/12/16 12:05:19;;;;;;;;;;;10.40;99.90;;;;;;5052175;28;19916;-57
2021/12/16 12:07:46;;;;;;;;;;;10.40;99.90;;;;;;5084839;28;20181;-57
2021/12/16 12:10:15;;;;;;;;;;;10.50;99.90;;;;;;5069062;28;19955;-57
2021/12/16 12:12:46;;;;;;;;;;;10.50;99.90;;;;;;5049015;28;19909;-58
2021/12/16 12:15:13;;;;;;;;;;;10.60;99.90;;;;;;5067133;28;20015;-56
2021/12/16 12:17:52;;;;;;;;;;;10.60;99.90;;;;;;5067385;28;19913;-56
2021/12/16 12:20:30;;;;;;;;;;;10.70;99.90;;;;;;5048859;28;19921;-55
2021/12/16 12:22:58;;;;;;;;;;;10.80;99.90;;;;;;5064972;28;19923;-56
2021/12/16 12:25:24;;;;;;;;;;;10.80;99.90;;;;;;5048214;28;19915;-58
2021/12/16 12:27:52;;;;;;;;;;;10.60;99.90;;;;;;5048826;28;19908;-57
2021/12/16 12:30:19;;;;;;;;;;;10.50;99.90;;;;;;5050654;28;20006;-58
2021/12/16 12:32:49;;;;;;;;;;;10.40;99.90;;;;;;5049494;28;19919;-58
2021/12/16 12:35:16;;;;;;;;;;;10.40;99.90;;;;;;5048996;28;19944;-58
2021/12/16 12:37:44;;;;;;;;;;;10.30;99.90;;;;;;5050159;28;19920;-58
2021/12/16 12:40:13;;;;;;;;;;;10.30;99.90;;;;;;5068035;28;19919;-58
2021/12/16 12:42:40;;;;;;;;;;;10.20;99.90;;;;;;5049193;28;20618;-58
2021/12/16 12:45:08;;;;;;;;;;;10.20;99.90;;;;;;5067510;28;19923;-58
2021/12/16 12:47:35;;;;;;;;;;;10.10;99.90;;;;;;5050168;28;20297;-58
2021/12/16 12:50:21;;;;;;;;;;;10.10;99.90;;;;;;5061846;28;19921;-56
2021/12/16 12:52:50;;;;;;;;;;;10.10;99.90;;;;;;5068153;28;19963;-58
2021/12/16 12:55:19;;;;;;;;;;;10.20;99.90;;;;;;5068380;28;20603;-55
2021/12/16 12:57:46;;;;;;;;;;;10.20;99.90;;;;;;5068631;28;19959;-58
2021/12/16 13:00:29;;;;;;;;;;;10.40;99.90;;;;;;5069563;28;19908;-57
2021/12/16 13:03:06;;;;;;;;;;;10.60;99.90;;;;;;5066362;28;19947;-58
2021/12/16 13:05:33;;;;;;;;;;;10.90;99.90;;;;;;5068176;28;19939;-58
2021/12/16 13:08:03;;;;;;;;;;;10.90;99.90;;;;;;5065204;28;19915;-58
2021/12/16 13:10:42;;;;;;;;;;;11.10;99.90;;;;;;5066423;28;19920;-58
2021/12/16 13:15:54;;;;;;;;;;;11.10;99.90;;;;;;5066231;28;19916;-53
2021/12/16 13:26:38;;;;;;;;;;;10.90;99.90;;;;;;5062995;28;19920;-56
2021/12/16 13:29:32;;;;;;;;;;;10.70;99.90;;;;;;5062871;28;19916;-54
2021/12/16 13:32:15;;;;;;;;;;;10.70;99.90;;;;;;5056391;28;20078;-58
2021/12/16 13:37:47;;;;;;;;;;;10.80;99.90;;;;;;5035423;28;19916;-56
2021/12/16 13:40:18;;;;;;;;;;;10.90;99.90;;;;;;5089558;28;19927;-56
2021/12/16 13:42:54;;;;;;;;;;;11.00;99.90;;;;;;5055036;28;19916;-53
2021/12/16 13:45:29;;;;;;;;;;;10.90;99.90;;;;;;5057069;28;20054;-57
2021/12/16 13:48:08;;;;;;;;;;;10.90;99.90;;;;;;5056943;28;19924;-56
2021/12/16 14:05:18;;;;;;;;;;;10.50;99.90;;;;;;5074075;28;20055;-58
2021/12/16 14:08:00;;;;;;;;;;;10.40;99.90;;;;;;5070418;28;19912;-55
2021/12/16 14:10:44;;;;;;;;;;;10.30;99.90;;;;;;5071361;28;19920;-58
2021/12/16 14:16:34;;;;;;;;;;;10.30;99.90;;;;;;5068350;28;19936;-55
